createdAt,value
2019-06-07T00:00:36.739Z,8.66
2019-06-07T00:05:20.240Z,9.03
2019-06-07T00:10:36.126Z,10.19
2019-06-07T00:15:29.159Z,10.05
2019-06-07T00:20:27.443Z,10.41
2019-06-07T00:25:30.089Z,12.33
2019-06-07T00:30:42.359Z,8.28
2019-06-07T00:35:35.249Z,9.02
2019-06-07T00:40:37.834Z,9.26
2019-06-07T00:45:41.153Z,8.54
2019-06-07T00:50:43.766Z,8.31
2019-06-07T00:55:46.216Z,8.71
2019-06-07T01:00:48.832Z,8.05
2019-06-07T01:05:51.610Z,9.41
2019-06-07T01:10:54.460Z,9.49
2019-06-07T01:15:56.711Z,8.64
2019-06-07T01:20:59.635Z,11.31
2019-06-07T01:26:03.216Z,10.84
2019-06-07T01:31:06.111Z,11.75
2019-06-07T01:36:09.410Z,12.07
2019-06-07T01:41:12.105Z,10.23
2019-06-07T01:46:14.499Z,10.55
2019-06-07T01:51:18.914Z,9.93
2019-06-07T01:56:20.089Z,10.69
2019-06-07T02:01:21.661Z,11.99
2019-06-07T02:06:26.010Z,11.05
2019-06-07T02:11:26.133Z,10.88
2019-06-07T02:16:30.479Z,11.25
2019-06-07T02:21:33.429Z,10.87
2019-06-07T02:26:32.539Z,9.82
2019-06-07T02:31:39.188Z,10.13
2019-06-07T02:36:40.945Z,11.33
2019-06-07T02:41:40.089Z,9.17
2019-06-07T02:46:46.817Z,12.22
2019-06-07T02:51:43.408Z,9.66
2019-06-07T02:56:56.375Z,9.00
2019-06-07T03:01:48.446Z,10.23
2019-06-07T03:06:50.991Z,11.13
2019-06-07T03:11:53.770Z,14.66
2019-06-07T03:16:56.570Z,14.17
2019-06-07T03:22:01.231Z,17.24
2019-06-07T03:27:32.702Z,13.96
2019-06-07T03:32:07.494Z,16.03
2019-06-07T03:37:10.108Z,19.33
2019-06-07T03:42:13.529Z,14.97
2019-06-07T03:47:16.918Z,10.78
2019-06-07T03:52:19.345Z,11.66
2019-06-07T03:57:21.740Z,14.85
2019-06-07T04:02:24.212Z,15.85
2019-06-07T04:07:28.939Z,16.48
2019-06-07T04:12:31.680Z,17.95
2019-06-07T04:17:32.300Z,17.87
2019-06-07T04:22:38.821Z,16.76
2019-06-07T04:27:37.789Z,17.34
2019-06-07T04:32:39.774Z,16.57
2019-06-07T04:37:41.439Z,16.70
2019-06-07T04:42:45.263Z,15.14
2019-06-07T04:47:43.470Z,18.36
2019-06-07T04:52:46.307Z,17.44
2019-06-07T04:57:48.889Z,19.18
2019-06-07T05:02:51.488Z,15.80
2019-06-07T05:07:54.054Z,14.58
2019-06-07T05:12:56.914Z,13.49
2019-06-07T05:17:59.365Z,14.66
2019-06-07T05:23:02.057Z,12.07
2019-06-07T05:28:04.443Z,14.14
2019-06-07T05:33:07.143Z,11.57
2019-06-07T05:38:09.678Z,13.11
2019-06-07T05:43:12.616Z,14.29
2019-06-07T05:48:15.505Z,13.26
2019-06-07T05:53:17.928Z,10.79
2019-06-07T05:58:20.318Z,11.95
2019-06-07T06:03:22.917Z,9.98
2019-06-07T06:08:25.326Z,11.18
2019-06-07T06:13:28.260Z,12.25
2019-06-07T06:18:30.977Z,11.06
2019-06-07T06:23:33.391Z,11.51
2019-06-07T06:28:37.207Z,12.08
2019-06-07T06:33:37.755Z,12.03
2019-06-07T06:38:41.391Z,11.89
2019-06-07T06:43:46.761Z,11.56
2019-06-07T06:48:48.253Z,9.35
2019-06-07T06:53:49.161Z,10.06
2019-06-07T06:59:27.260Z,10.13
2019-06-07T07:04:01.222Z,9.37
2019-06-07T07:08:53.979Z,9.72
2019-06-07T07:13:56.881Z,10.15
2019-06-07T07:18:58.397Z,10.59
2019-06-07T07:24:20.121Z,10.63
2019-06-07T07:29:03.223Z,8.66
2019-06-07T07:34:33.612Z,11.11
2019-06-07T07:39:07.796Z,10.71
2019-06-07T07:44:10.222Z,13.47
2019-06-07T07:49:12.610Z,11.93
2019-06-07T07:54:15.498Z,12.39
2019-06-07T07:59:17.940Z,12.47
2019-06-07T08:04:39.483Z,10.60
2019-06-07T08:09:22.649Z,10.55
2019-06-07T08:14:25.374Z,11.07
2019-06-07T08:19:27.895Z,10.07
2019-06-07T08:24:30.663Z,10.37
2019-06-07T08:29:44.857Z,9.36
2019-06-07T08:34:35.504Z,8.65
2019-06-07T08:39:38.290Z,8.94
2019-06-07T08:44:40.913Z,9.68
2019-06-07T08:49:43.467Z,10.49
2019-06-07T08:54:46.124Z,10.08
2019-06-07T08:59:48.513Z,8.08
2019-06-07T09:04:54.693Z,10.54
2019-06-07T09:09:54.970Z,13.29
2019-06-07T09:15:09.022Z,12.80
2019-06-07T09:19:58.963Z,8.42
2019-06-07T09:25:04.308Z,12.26
2019-06-07T09:30:07.647Z,10.70
2019-06-07T09:35:10.637Z,13.59
2019-06-07T09:40:21.839Z,12.05
2019-06-07T09:45:11.718Z,10.89
2019-06-07T09:50:12.436Z,9.65
2019-06-07T09:55:22.810Z,6.35
2019-06-07T10:00:39.295Z,6.86
2019-06-07T10:05:17.464Z,7.41
2019-06-07T10:15:22.672Z,7.67
2019-06-07T10:20:26.266Z,7.58
2019-06-07T10:25:29.473Z,10.16
2019-06-07T10:30:32.153Z,7.51
2019-06-07T10:35:35.089Z,8.59
2019-06-07T10:40:38.031Z,9.60
2019-06-07T10:45:40.727Z,6.37
2019-06-07T10:50:43.824Z,7.27
2019-06-07T10:55:46.671Z,8.87
2019-06-07T11:00:49.474Z,7.35
2019-06-07T11:05:52.235Z,8.73
2019-06-07T11:10:54.988Z,8.06
2019-06-07T11:15:57.719Z,7.64
2019-06-07T11:21:00.570Z,8.18
2019-06-07T11:26:03.334Z,9.47
2019-06-07T11:31:06.378Z,8.81
2019-06-07T11:36:08.939Z,8.53
2019-06-07T11:41:11.842Z,8.66
2019-06-07T11:46:15.283Z,7.63
2019-06-07T11:51:18.902Z,6.59
2019-06-07T11:56:20.304Z,9.52
2019-06-07T12:01:23.051Z,8.24
2019-06-07T12:06:26.260Z,10.26
2019-06-07T12:11:29.434Z,11.24
2019-06-07T12:16:32.221Z,9.14
2019-06-07T12:21:34.895Z,8.94
2019-06-07T12:26:37.819Z,8.57
2019-06-07T12:31:40.436Z,8.91
2019-06-07T12:36:43.319Z,9.05
2019-06-07T12:41:46.201Z,8.88
2019-06-07T12:46:49.000Z,9.58
2019-06-07T12:51:51.808Z,7.62
2019-06-07T12:56:54.629Z,9.41
2019-06-07T13:02:02.260Z,8.97
2019-06-07T13:06:59.788Z,9.46
2019-06-07T13:12:03.063Z,11.25
2019-06-07T13:17:06.464Z,9.63
2019-06-07T13:22:09.155Z,14.03
2019-06-07T13:27:12.497Z,8.41
2019-06-07T13:32:17.429Z,10.28
2019-06-07T13:37:19.616Z,9.58
2019-06-07T13:42:22.838Z,8.56
2019-06-07T13:47:25.242Z,11.95
2019-06-07T13:52:26.656Z,8.12
2019-06-07T13:57:29.664Z,12.34
2019-06-07T14:02:32.797Z,12.25
2019-06-07T14:07:35.737Z,8.71
2019-06-07T14:12:38.584Z,10.99
2019-06-07T14:17:41.516Z,9.63
2019-06-07T14:22:44.633Z,11.03
2019-06-07T14:27:47.625Z,10.07
2019-06-07T14:32:48.993Z,8.95
2019-06-07T14:37:51.947Z,11.88
2019-06-07T14:42:54.919Z,9.84
2019-06-07T14:47:58.052Z,11.21
2019-06-07T14:53:00.739Z,10.43
2019-06-07T14:58:03.999Z,8.11
2019-06-07T15:03:06.868Z,9.68
2019-06-07T15:08:09.953Z,11.10
2019-06-07T15:13:12.671Z,11.49
2019-06-07T15:18:15.464Z,9.96
2019-06-07T15:23:18.242Z,11.73
2019-06-07T15:28:21.077Z,12.24
2019-06-07T15:33:24.865Z,10.79
2019-06-07T15:38:28.950Z,10.98
2019-06-07T15:43:31.095Z,10.20
2019-06-07T15:48:33.862Z,9.89
2019-06-07T15:53:40.728Z,11.66
2019-06-07T15:58:39.252Z,7.41
2019-06-07T16:03:42.094Z,10.05
2019-06-07T16:08:43.739Z,11.36
2019-06-07T16:13:46.673Z,12.09
2019-06-07T16:18:49.479Z,12.22
2019-06-07T16:23:52.527Z,9.58
2019-06-07T16:28:57.316Z,8.93
2019-06-07T16:33:57.742Z,10.82
2019-06-07T16:39:00.726Z,10.85
2019-06-07T16:44:03.691Z,10.53
2019-06-07T16:49:06.616Z,11.04
2019-06-07T16:54:09.596Z,9.73
2019-06-07T16:59:12.507Z,11.51
2019-06-07T17:04:16.313Z,11.95
2019-06-07T17:09:18.997Z,9.00
2019-06-07T17:14:22.002Z,13.27
2019-06-07T17:19:25.234Z,8.49
2019-06-07T17:24:27.997Z,13.36
2019-06-07T17:29:32.435Z,8.83
2019-06-07T17:34:35.339Z,11.87
2019-06-07T17:39:38.133Z,10.89
2019-06-07T17:44:41.263Z,9.98
2019-06-07T17:49:44.603Z,13.66
2019-06-07T17:54:47.936Z,9.58
2019-06-07T17:59:50.412Z,12.24
2019-06-07T18:04:53.375Z,11.01
2019-06-07T18:09:54.271Z,12.75
2019-06-07T18:14:57.294Z,8.75
2019-06-07T18:20:00.493Z,8.90
2019-06-07T18:25:03.667Z,12.91
2019-06-07T18:30:11.409Z,10.21
2019-06-07T18:35:08.997Z,9.11
2019-06-07T18:40:11.701Z,11.76
2019-06-07T18:45:14.390Z,8.96
2019-06-07T18:50:17.381Z,11.08
2019-06-07T18:55:20.471Z,9.73
2019-06-07T19:00:23.829Z,9.10
2019-06-07T19:05:26.666Z,14.54
2019-06-07T19:10:29.458Z,12.18
2019-06-07T19:15:32.448Z,10.33
2019-06-07T19:20:35.709Z,9.81
2019-06-07T19:25:39.303Z,11.54
2019-06-07T19:30:42.413Z,12.73
2019-06-07T19:35:45.418Z,13.14
2019-06-07T19:40:48.249Z,10.56
2019-06-07T19:45:52.008Z,17.16
2019-06-07T19:50:54.914Z,11.79
2019-06-07T19:55:59.175Z,13.03
2019-06-07T20:01:02.109Z,10.49
2019-06-07T20:06:04.768Z,14.36
2019-06-07T20:11:08.096Z,15.61
2019-06-07T20:16:11.102Z,11.44
2019-06-07T20:21:14.185Z,11.69
2019-06-07T20:26:17.001Z,9.84
2019-06-07T20:31:19.925Z,10.95
2019-06-07T20:36:22.534Z,11.68
2019-06-07T20:41:25.532Z,12.11
2019-06-07T20:46:28.264Z,9.65
2019-06-07T20:51:31.229Z,10.64
2019-06-07T20:56:34.059Z,10.41
2019-06-07T21:01:37.767Z,9.92
2019-06-07T21:06:40.373Z,9.58
2019-06-07T21:11:43.279Z,10.04
2019-06-07T21:16:46.508Z,10.44
2019-06-07T21:21:49.232Z,10.19
2019-06-07T21:26:53.428Z,12.27
2019-06-07T21:31:55.057Z,10.21
2019-06-07T21:36:58.382Z,8.62
2019-06-07T21:42:02.253Z,8.09
2019-06-07T21:47:04.271Z,8.82
2019-06-07T21:52:06.990Z,11.14
2019-06-07T21:57:11.083Z,10.02
2019-06-07T22:02:13.743Z,7.97
2019-06-07T22:07:15.572Z,7.69
2019-06-07T22:12:18.763Z,9.22
2019-06-07T22:17:22.660Z,9.03
2019-06-07T22:22:25.633Z,8.10
2019-06-07T22:27:28.739Z,8.94
2019-06-07T22:32:31.990Z,7.57
2019-06-07T22:37:35.399Z,7.28
2019-06-07T22:42:37.855Z,5.92
2019-06-07T22:47:40.388Z,6.29
2019-06-07T22:52:43.139Z,8.38
2019-06-07T22:57:46.022Z,6.62
2019-06-07T23:02:48.414Z,4.12
2019-06-07T23:07:52.422Z,3.72
2019-06-07T23:12:54.922Z,3.44
2019-06-07T23:17:58.110Z,3.16
2019-06-07T23:23:01.612Z,2.86
2019-06-07T23:28:04.536Z,3.63
2019-06-07T23:33:07.260Z,4.83
2019-06-07T23:38:10.835Z,2.94
2019-06-07T23:43:11.717Z,2.99
2019-06-07T23:48:15.365Z,4.07
2019-06-07T23:53:17.689Z,3.12
2019-06-07T23:58:20.660Z,6.30
